sensor_id;sensor_type;location;lat;lon;timestamp;temperature;humidity
37158;DHT22;23050;51.776;22.638;2023-06-10T00:01:19;17.20;99.90
37158;DHT22;23050;51.776;22.638;2023-06-10T00:03:45;17.20;99.90
37158;DHT22;23050;51.776;22.638;2023-06-10T00:06:10;17.20;99.90
37158;DHT22;23050;51.776;22.638;2023-06-10T00:08:36;17.20;99.90
37158;DHT22;23050;51.776;22.638;2023-06-10T00:11:02;17.10;99.90
37158;DHT22;23050;51.776;22.638;2023-06-10T00:13:28;17.10;99.90
37158;DHT22;23050;51.776;22.638;2023-06-10T00:15:53;17.10;99.90
37158;DHT22;23050;51.776;22.638;2023-06-10T00:18:19;17.10;99.90
37158;DHT22;23050;51.776;22.638;2023-06-10T00:20:47;17.10;99.90
37158;DHT22;23050;51.776;22.638;2023-06-10T00:23:14;17.10;99.90
37158;DHT22;23050;51.776;22.638;2023-06-10T00:25:39;17.10;99.90
37158;DHT22;23050;51.776;22.638;2023-06-10T00:28:05;17.10;99.90
37158;DHT22;23050;51.776;22.638;2023-06-10T00:30:30;17.10;99.90
37158;DHT22;23050;51.776;22.638;2023-06-10T00:32:56;17.10;99.90
37158;DHT22;23050;51.776;22.638;2023-06-10T00:35:21;17.10;99.90
37158;DHT22;23050;51.776;22.638;2023-06-10T00:37:47;17.10;99.90
37158;DHT22;23050;51.776;22.638;2023-06-10T00:40:12;17.10;99.90
37158;DHT22;23050;51.776;22.638;2023-06-10T00:42:38;17.10;99.90
37158;DHT22;23050;51.776;22.638;2023-06-10T00:45:04;17.10;99.90
37158;DHT22;23050;51.776;22.638;2023-06-10T00:47:29;17.10;99.90
37158;DHT22;23050;51.776;22.638;2023-06-10T00:49:55;17.10;99.90
37158;DHT22;23050;51.776;22.638;2023-06-10T00:52:21;17.10;99.90
37158;DHT22;23050;51.776;22.638;2023-06-10T00:54:47;17.10;99.90
37158;DHT22;23050;51.776;22.638;2023-06-10T00:57:13;17.10;99.90
37158;DHT22;23050;51.776;22.638;2023-06-10T00:59:42;17.00;99.90
37158;DHT22;23050;51.776;22.638;2023-06-10T01:02:08;17.00;99.90
37158;DHT22;23050;51.776;22.638;2023-06-10T01:04:34;17.00;99.90
37158;DHT22;23050;51.776;22.638;2023-06-10T01:09:32;17.00;99.90
37158;DHT22;23050;51.776;22.638;2023-06-10T01:12:12;17.00;99.90
37158;DHT22;23050;51.776;22.638;2023-06-10T01:14:39;17.00;99.90
37158;DHT22;23050;51.776;22.638;2023-06-10T01:17:10;16.90;99.90
37158;DHT22;23050;51.776;22.638;2023-06-10T01:19:36;16.90;99.90
37158;DHT22;23050;51.776;22.638;2023-06-10T01:22:01;16.90;99.90
37158;DHT22;23050;51.776;22.638;2023-06-10T01:24:27;16.80;99.90
37158;DHT22;23050;51.776;22.638;2023-06-10T01:26:53;16.80;99.90
37158;DHT22;23050;51.776;22.638;2023-06-10T01:29:22;16.80;99.90
37158;DHT22;23050;51.776;22.638;2023-06-10T01:34:24;16.80;99.90
37158;DHT22;23050;51.776;22.638;2023-06-10T01:36:51;16.80;99.90
37158;DHT22;23050;51.776;22.638;2023-06-10T01:39:18;16.80;99.90
37158;DHT22;23050;51.776;22.638;2023-06-10T01:41:45;16.80;99.90
37158;DHT22;23050;51.776;22.638;2023-06-10T01:44:13;16.80;99.90
37158;DHT22;23050;51.776;22.638;2023-06-10T01:46:42;16.80;99.90
37158;DHT22;23050;51.776;22.638;2023-06-10T01:49:07;16.80;99.90
37158;DHT22;23050;51.776;22.638;2023-06-10T01:51:33;16.80;99.90
37158;DHT22;23050;51.776;22.638;2023-06-10T01:53:58;16.80;99.90
37158;DHT22;23050;51.776;22.638;2023-06-10T01:56:24;16.80;99.90
37158;DHT22;23050;51.776;22.638;2023-06-10T01:58:50;16.80;99.90
37158;DHT22;23050;51.776;22.638;2023-06-10T02:01:15;16.80;99.90
37158;DHT22;23050;51.776;22.638;2023-06-10T02:03:41;16.80;99.90
37158;DHT22;23050;51.776;22.638;2023-06-10T02:06:06;16.80;99.90
37158;DHT22;23050;51.776;22.638;2023-06-10T02:08:32;16.70;99.90
37158;DHT22;23050;51.776;22.638;2023-06-10T02:10:57;16.70;99.90
37158;DHT22;23050;51.776;22.638;2023-06-10T02:13:23;16.70;99.90
37158;DHT22;23050;51.776;22.638;2023-06-10T02:15:48;16.70;99.90
37158;DHT22;23050;51.776;22.638;2023-06-10T02:18:14;16.70;99.90
37158;DHT22;23050;51.776;22.638;2023-06-10T02:20:39;16.70;99.90
37158;DHT22;23050;51.776;22.638;2023-06-10T02:23:05;16.70;99.90
37158;DHT22;23050;51.776;22.638;2023-06-10T02:25:30;16.70;99.90
37158;DHT22;23050;51.776;22.638;2023-06-10T02:27:56;16.70;99.90
37158;DHT22;23050;51.776;22.638;2023-06-10T02:30:21;16.70;99.90
37158;DHT22;23050;51.776;22.638;2023-06-10T02:32:47;16.60;99.90
37158;DHT22;23050;51.776;22.638;2023-06-10T02:35:16;16.60;99.90
37158;DHT22;23050;51.776;22.638;2023-06-10T02:37:42;16.60;99.90
37158;DHT22;23050;51.776;22.638;2023-06-10T02:40:08;16.60;99.90
37158;DHT22;23050;51.776;22.638;2023-06-10T02:42:34;16.50;99.90
37158;DHT22;23050;51.776;22.638;2023-06-10T02:44:59;16.50;99.90
37158;DHT22;23050;51.776;22.638;2023-06-10T02:47:26;16.40;99.90
37158;DHT22;23050;51.776;22.638;2023-06-10T02:49:51;16.50;99.90
37158;DHT22;23050;51.776;22.638;2023-06-10T02:52:17;16.50;99.90
37158;DHT22;23050;51.776;22.638;2023-06-10T02:54:42;16.50;99.90
37158;DHT22;23050;51.776;22.638;2023-06-10T02:57:08;16.50;99.90
37158;DHT22;23050;51.776;22.638;2023-06-10T02:59:35;16.50;99.90
37158;DHT22;23050;51.776;22.638;2023-06-10T03:02:00;16.60;99.90
37158;DHT22;23050;51.776;22.638;2023-06-10T03:04:26;16.60;99.90
37158;DHT22;23050;51.776;22.638;2023-06-10T03:06:54;16.60;99.90
37158;DHT22;23050;51.776;22.638;2023-06-10T03:09:20;16.60;99.90
37158;DHT22;23050;51.776;22.638;2023-06-10T03:11:45;16.60;99.90
37158;DHT22;23050;51.776;22.638;2023-06-10T03:14:11;16.70;99.90
37158;DHT22;23050;51.776;22.638;2023-06-10T03:16:36;16.70;99.90
37158;DHT22;23050;51.776;22.638;2023-06-10T03:19:06;16.70;99.90
37158;DHT22;23050;51.776;22.638;2023-06-10T03:21:31;16.70;99.90
37158;DHT22;23050;51.776;22.638;2023-06-10T03:23:57;16.60;99.90
37158;DHT22;23050;51.776;22.638;2023-06-10T03:26:22;16.60;99.90
37158;DHT22;23050;51.776;22.638;2023-06-10T03:28:48;16.70;99.90
37158;DHT22;23050;51.776;22.638;2023-06-10T03:31:14;16.70;99.90
37158;DHT22;23050;51.776;22.638;2023-06-10T03:33:42;16.70;99.90
37158;DHT22;23050;51.776;22.638;2023-06-10T03:36:07;16.70;99.90
37158;DHT22;23050;51.776;22.638;2023-06-10T03:38:33;16.70;99.90
37158;DHT22;23050;51.776;22.638;2023-06-10T03:40:58;16.80;99.90
37158;DHT22;23050;51.776;22.638;2023-06-10T03:43:23;16.80;99.90
37158;DHT22;23050;51.776;22.638;2023-06-10T03:45:49;16.80;99.90
37158;DHT22;23050;51.776;22.638;2023-06-10T03:48:14;16.90;99.90
37158;DHT22;23050;51.776;22.638;2023-06-10T03:50:40;16.90;99.90
37158;DHT22;23050;51.776;22.638;2023-06-10T03:53:06;16.90;99.90
37158;DHT22;23050;51.776;22.638;2023-06-10T03:55:31;17.00;99.90
37158;DHT22;23050;51.776;22.638;2023-06-10T03:57:57;17.00;99.90
37158;DHT22;23050;51.776;22.638;2023-06-10T04:00:23;17.10;99.90
37158;DHT22;23050;51.776;22.638;2023-06-10T04:02:48;17.20;99.90
37158;DHT22;23050;51.776;22.638;2023-06-10T04:05:16;17.30;99.90
37158;DHT22;23050;51.776;22.638;2023-06-10T04:07:42;17.40;99.90
37158;DHT22;23050;51.776;22.638;2023-06-10T04:10:09;17.40;99.90
37158;DHT22;23050;51.776;22.638;2023-06-10T04:12:35;17.50;99.90
37158;DHT22;23050;51.776;22.638;2023-06-10T04:15:01;17.60;99.90
37158;DHT22;23050;51.776;22.638;2023-06-10T04:17:27;17.60;99.90
37158;DHT22;23050;51.776;22.638;2023-06-10T04:19:52;17.60;99.90
37158;DHT22;23050;51.776;22.638;2023-06-10T04:22:18;17.70;99.90
37158;DHT22;23050;51.776;22.638;2023-06-10T04:24:44;17.80;99.90
37158;DHT22;23050;51.776;22.638;2023-06-10T04:27:09;17.80;99.90
37158;DHT22;23050;51.776;22.638;2023-06-10T04:29:35;17.80;99.90
37158;DHT22;23050;51.776;22.638;2023-06-10T04:32:01;17.80;99.90
37158;DHT22;23050;51.776;22.638;2023-06-10T04:34:27;17.80;99.90
37158;DHT22;23050;51.776;22.638;2023-06-10T04:36:52;17.70;99.90
37158;DHT22;23050;51.776;22.638;2023-06-10T04:39:18;17.80;99.90
37158;DHT22;23050;51.776;22.638;2023-06-10T04:41:43;17.80;99.90
37158;DHT22;23050;51.776;22.638;2023-06-10T04:44:09;17.80;99.90
37158;DHT22;23050;51.776;22.638;2023-06-10T04:46:36;17.80;99.90
37158;DHT22;23050;51.776;22.638;2023-06-10T04:49:01;17.80;99.90
37158;DHT22;23050;51.776;22.638;2023-06-10T04:51:27;17.80;99.90
37158;DHT22;23050;51.776;22.638;2023-06-10T04:53:52;17.80;99.90
37158;DHT22;23050;51.776;22.638;2023-06-10T04:56:18;17.80;99.90
37158;DHT22;23050;51.776;22.638;2023-06-10T04:58:44;17.70;99.90
37158;DHT22;23050;51.776;22.638;2023-06-10T05:01:10;17.70;99.90
37158;DHT22;23050;51.776;22.638;2023-06-10T05:03:35;17.70;99.90
37158;DHT22;23050;51.776;22.638;2023-06-10T05:06:00;17.80;99.90
37158;DHT22;23050;51.776;22.638;2023-06-10T05:08:26;17.80;99.90
37158;DHT22;23050;51.776;22.638;2023-06-10T05:10:51;17.80;99.90
37158;DHT22;23050;51.776;22.638;2023-06-10T05:13:17;17.90;99.90
37158;DHT22;23050;51.776;22.638;2023-06-10T05:15:43;18.00;99.90
37158;DHT22;23050;51.776;22.638;2023-06-10T05:18:10;18.10;99.90
37158;DHT22;23050;51.776;22.638;2023-06-10T05:20:37;18.20;99.90
37158;DHT22;23050;51.776;22.638;2023-06-10T05:23:02;18.40;99.90
37158;DHT22;23050;51.776;22.638;2023-06-10T05:25:30;18.50;99.90
37158;DHT22;23050;51.776;22.638;2023-06-10T05:27:55;18.60;99.90
37158;DHT22;23050;51.776;22.638;2023-06-10T05:30:21;18.70;99.90
37158;DHT22;23050;51.776;22.638;2023-06-10T05:32:47;18.80;99.90
37158;DHT22;23050;51.776;22.638;2023-06-10T05:35:13;18.90;99.90
37158;DHT22;23050;51.776;22.638;2023-06-10T05:37:38;19.00;99.90
37158;DHT22;23050;51.776;22.638;2023-06-10T05:40:04;19.10;99.90
37158;DHT22;23050;51.776;22.638;2023-06-10T05:42:29;19.20;99.90
37158;DHT22;23050;51.776;22.638;2023-06-10T05:44:55;19.10;99.90
37158;DHT22;23050;51.776;22.638;2023-06-10T05:47:20;19.10;99.90
37158;DHT22;23050;51.776;22.638;2023-06-10T05:49:46;19.10;99.90
37158;DHT22;23050;51.776;22.638;2023-06-10T05:52:13;18.90;99.90
37158;DHT22;23050;51.776;22.638;2023-06-10T05:54:39;18.80;99.90
37158;DHT22;23050;51.776;22.638;2023-06-10T05:57:04;18.80;99.90
37158;DHT22;23050;51.776;22.638;2023-06-10T05:59:31;18.80;99.90
37158;DHT22;23050;51.776;22.638;2023-06-10T06:01:56;18.80;99.90
37158;DHT22;23050;51.776;22.638;2023-06-10T06:04:22;18.80;99.90
37158;DHT22;23050;51.776;22.638;2023-06-10T06:06:47;18.80;99.90
37158;DHT22;23050;51.776;22.638;2023-06-10T06:09:13;18.90;99.90
37158;DHT22;23050;51.776;22.638;2023-06-10T06:11:38;18.90;99.90
37158;DHT22;23050;51.776;22.638;2023-06-10T06:14:03;18.90;99.90
37158;DHT22;23050;51.776;22.638;2023-06-10T06:16:29;18.90;99.90
37158;DHT22;23050;51.776;22.638;2023-06-10T06:18:54;18.80;99.90
37158;DHT22;23050;51.776;22.638;2023-06-10T06:21:20;18.90;99.90
37158;DHT22;23050;51.776;22.638;2023-06-10T06:23:45;18.90;99.90
37158;DHT22;23050;51.776;22.638;2023-06-10T06:26:11;19.00;99.90
37158;DHT22;23050;51.776;22.638;2023-06-10T06:28:36;19.10;99.90
37158;DHT22;23050;51.776;22.638;2023-06-10T06:31:02;19.20;99.90
37158;DHT22;23050;51.776;22.638;2023-06-10T06:33:28;19.30;99.90
37158;DHT22;23050;51.776;22.638;2023-06-10T06:35:53;19.30;99.90
37158;DHT22;23050;51.776;22.638;2023-06-10T06:38:18;19.30;99.90
37158;DHT22;23050;51.776;22.638;2023-06-10T06:40:44;19.40;99.90
37158;DHT22;23050;51.776;22.638;2023-06-10T06:43:09;19.60;99.90
37158;DHT22;23050;51.776;22.638;2023-06-10T06:45:35;19.80;99.90
37158;DHT22;23050;51.776;22.638;2023-06-10T06:48:00;19.90;99.90
37158;DHT22;23050;51.776;22.638;2023-06-10T06:50:26;20.00;99.90
37158;DHT22;23050;51.776;22.638;2023-06-10T06:52:51;20.20;99.90
37158;DHT22;23050;51.776;22.638;2023-06-10T06:55:20;20.00;99.90
37158;DHT22;23050;51.776;22.638;2023-06-10T06:57:45;20.00;99.90
37158;DHT22;23050;51.776;22.638;2023-06-10T07:00:11;19.90;99.90
37158;DHT22;23050;51.776;22.638;2023-06-10T07:02:36;19.90;99.90
37158;DHT22;23050;51.776;22.638;2023-06-10T07:05:02;19.80;99.90
37158;DHT22;23050;51.776;22.638;2023-06-10T07:07:28;19.80;99.90
37158;DHT22;23050;51.776;22.638;2023-06-10T07:09:54;19.70;99.90
37158;DHT22;23050;51.776;22.638;2023-06-10T07:12:19;19.60;99.90
37158;DHT22;23050;51.776;22.638;2023-06-10T07:14:49;19.50;99.90
37158;DHT22;23050;51.776;22.638;2023-06-10T07:17:14;19.40;99.90
37158;DHT22;23050;51.776;22.638;2023-06-10T07:19:40;19.50;99.90
37158;DHT22;23050;51.776;22.638;2023-06-10T07:22:05;19.60;99.90
37158;DHT22;23050;51.776;22.638;2023-06-10T07:24:31;19.50;99.90
37158;DHT22;23050;51.776;22.638;2023-06-10T07:26:56;19.50;99.90
37158;DHT22;23050;51.776;22.638;2023-06-10T07:29:22;19.60;99.90
37158;DHT22;23050;51.776;22.638;2023-06-10T07:31:47;19.60;99.90
37158;DHT22;23050;51.776;22.638;2023-06-10T07:34:13;19.80;99.90
37158;DHT22;23050;51.776;22.638;2023-06-10T07:36:38;20.00;99.90
37158;DHT22;23050;51.776;22.638;2023-06-10T07:39:04;20.20;99.90
37158;DHT22;23050;51.776;22.638;2023-06-10T07:41:29;20.20;99.90
37158;DHT22;23050;51.776;22.638;2023-06-10T07:43:55;20.10;99.90
37158;DHT22;23050;51.776;22.638;2023-06-10T07:46:24;20.10;99.90
37158;DHT22;23050;51.776;22.638;2023-06-10T07:48:50;20.10;99.90
37158;DHT22;23050;51.776;22.638;2023-06-10T07:51:15;20.10;99.90
37158;DHT22;23050;51.776;22.638;2023-06-10T07:53:41;20.00;99.90
37158;DHT22;23050;51.776;22.638;2023-06-10T07:56:06;19.90;99.90
37158;DHT22;23050;51.776;22.638;2023-06-10T07:58:32;19.80;99.90
37158;DHT22;23050;51.776;22.638;2023-06-10T08:00:57;19.80;99.90
37158;DHT22;23050;51.776;22.638;2023-06-10T08:03:23;19.70;99.90
37158;DHT22;23050;51.776;22.638;2023-06-10T08:05:48;19.50;99.90
37158;DHT22;23050;51.776;22.638;2023-06-10T08:08:14;19.30;99.90
37158;DHT22;23050;51.776;22.638;2023-06-10T08:10:39;19.40;99.90
37158;DHT22;23050;51.776;22.638;2023-06-10T08:13:05;19.50;99.90
37158;DHT22;23050;51.776;22.638;2023-06-10T08:15:30;19.60;99.90
37158;DHT22;23050;51.776;22.638;2023-06-10T08:17:56;19.80;99.90
37158;DHT22;23050;51.776;22.638;2023-06-10T08:20:22;19.70;99.90
37158;DHT22;23050;51.776;22.638;2023-06-10T08:22:47;19.70;99.90
37158;DHT22;23050;51.776;22.638;2023-06-10T08:25:13;19.70;99.90
37158;DHT22;23050;51.776;22.638;2023-06-10T08:27:38;19.50;99.90
37158;DHT22;23050;51.776;22.638;2023-06-10T08:30:04;19.30;99.90
37158;DHT22;23050;51.776;22.638;2023-06-10T08:32:30;19.10;99.90
37158;DHT22;23050;51.776;22.638;2023-06-10T08:34:55;19.00;99.90
37158;DHT22;23050;51.776;22.638;2023-06-10T08:37:20;18.90;99.90
37158;DHT22;23050;51.776;22.638;2023-06-10T08:39:47;18.80;99.90
37158;DHT22;23050;51.776;22.638;2023-06-10T08:42:26;18.80;99.90
37158;DHT22;23050;51.776;22.638;2023-06-10T08:44:53;18.70;99.90
37158;DHT22;23050;51.776;22.638;2023-06-10T08:47:20;18.70;99.90
37158;DHT22;23050;51.776;22.638;2023-06-10T08:49:47;18.80;99.90
37158;DHT22;23050;51.776;22.638;2023-06-10T08:52:14;18.90;99.90
37158;DHT22;23050;51.776;22.638;2023-06-10T08:54:40;19.00;99.90
37158;DHT22;23050;51.776;22.638;2023-06-10T08:57:07;19.10;99.90
37158;DHT22;23050;51.776;22.638;2023-06-10T08:59:33;19.20;99.90
37158;DHT22;23050;51.776;22.638;2023-06-10T09:01:58;19.30;99.90
37158;DHT22;23050;51.776;22.638;2023-06-10T09:04:25;19.30;99.90
37158;DHT22;23050;51.776;22.638;2023-06-10T09:06:51;19.60;99.90
37158;DHT22;23050;51.776;22.638;2023-06-10T09:09:17;19.80;99.90
37158;DHT22;23050;51.776;22.638;2023-06-10T09:11:44;20.00;99.90
37158;DHT22;23050;51.776;22.638;2023-06-10T09:14:09;20.00;99.90
37158;DHT22;23050;51.776;22.638;2023-06-10T09:16:35;20.10;99.90
37158;DHT22;23050;51.776;22.638;2023-06-10T09:19:00;20.00;99.90
37158;DHT22;23050;51.776;22.638;2023-06-10T09:21:26;20.00;99.90
37158;DHT22;23050;51.776;22.638;2023-06-10T09:23:52;20.00;99.90
37158;DHT22;23050;51.776;22.638;2023-06-10T09:26:17;19.90;99.90
37158;DHT22;23050;51.776;22.638;2023-06-10T09:28:44;19.90;99.90
37158;DHT22;23050;51.776;22.638;2023-06-10T09:31:09;20.00;99.90
37158;DHT22;23050;51.776;22.638;2023-06-10T09:33:38;19.90;99.90
37158;DHT22;23050;51.776;22.638;2023-06-10T09:36:04;19.90;99.90
37158;DHT22;23050;51.776;22.638;2023-06-10T09:38:31;20.00;99.90
37158;DHT22;23050;51.776;22.638;2023-06-10T09:40:59;20.00;99.90
37158;DHT22;23050;51.776;22.638;2023-06-10T09:43:38;20.00;99.90
37158;DHT22;23050;51.776;22.638;2023-06-10T09:46:03;20.30;99.90
37158;DHT22;23050;51.776;22.638;2023-06-10T09:48:29;20.60;99.90
37158;DHT22;23050;51.776;22.638;2023-06-10T09:50:54;20.60;99.90
37158;DHT22;23050;51.776;22.638;2023-06-10T09:53:20;20.60;99.90
37158;DHT22;23050;51.776;22.638;2023-06-10T09:55:45;20.60;99.90
37158;DHT22;23050;51.776;22.638;2023-06-10T09:58:11;20.50;99.90
37158;DHT22;23050;51.776;22.638;2023-06-10T10:00:36;20.40;99.90
37158;DHT22;23050;51.776;22.638;2023-06-10T10:03:02;20.20;99.90
37158;DHT22;23050;51.776;22.638;2023-06-10T10:05:27;20.00;99.90
37158;DHT22;23050;51.776;22.638;2023-06-10T10:07:53;19.70;99.90
37158;DHT22;23050;51.776;22.638;2023-06-10T10:10:19;19.50;99.90
37158;DHT22;23050;51.776;22.638;2023-06-10T10:12:50;19.40;99.90
37158;DHT22;23050;51.776;22.638;2023-06-10T10:15:16;19.40;99.90
37158;DHT22;23050;51.776;22.638;2023-06-10T10:18:05;19.40;99.90
37158;DHT22;23050;51.776;22.638;2023-06-10T10:20:29;19.40;99.90
37158;DHT22;23050;51.776;22.638;2023-06-10T10:22:57;19.60;99.90
37158;DHT22;23050;51.776;22.638;2023-06-10T10:25:25;19.70;99.90
37158;DHT22;23050;51.776;22.638;2023-06-10T10:27:55;19.80;99.90
37158;DHT22;23050;51.776;22.638;2023-06-10T10:30:22;20.00;99.90
37158;DHT22;23050;51.776;22.638;2023-06-10T10:33:04;20.10;99.90
37158;DHT22;23050;51.776;22.638;2023-06-10T10:35:30;20.20;99.90
37158;DHT22;23050;51.776;22.638;2023-06-10T10:37:58;20.10;99.90
37158;DHT22;23050;51.776;22.638;2023-06-10T10:40:23;20.00;99.90
37158;DHT22;23050;51.776;22.638;2023-06-10T10:42:50;20.00;99.90
37158;DHT22;23050;51.776;22.638;2023-06-10T10:45:16;19.90;99.90
37158;DHT22;23050;51.776;22.638;2023-06-10T10:47:42;19.80;99.90
37158;DHT22;23050;51.776;22.638;2023-06-10T10:50:17;20.00;99.90
37158;DHT22;23050;51.776;22.638;2023-06-10T10:52:50;20.00;99.90
37158;DHT22;23050;51.776;22.638;2023-06-10T10:55:16;20.10;99.90
37158;DHT22;23050;51.776;22.638;2023-06-10T10:57:42;20.10;99.90
37158;DHT22;23050;51.776;22.638;2023-06-10T11:00:08;20.10;99.90
37158;DHT22;23050;51.776;22.638;2023-06-10T11:02:44;20.10;99.90
37158;DHT22;23050;51.776;22.638;2023-06-10T11:05:17;20.00;99.90
37158;DHT22;23050;51.776;22.638;2023-06-10T11:07:55;20.10;99.90
37158;DHT22;23050;51.776;22.638;2023-06-10T11:10:33;20.40;99.90
37158;DHT22;23050;51.776;22.638;2023-06-10T11:12:59;20.60;99.90
37158;DHT22;23050;51.776;22.638;2023-06-10T11:15:26;20.70;99.90
37158;DHT22;23050;51.776;22.638;2023-06-10T11:18:07;20.80;99.90
37158;DHT22;23050;51.776;22.638;2023-06-10T11:20:58;20.80;99.90
37158;DHT22;23050;51.776;22.638;2023-06-10T11:25:51;21.00;99.90
37158;DHT22;23050;51.776;22.638;2023-06-10T11:28:19;21.00;99.90
37158;DHT22;23050;51.776;22.638;2023-06-10T11:30:45;21.00;99.90
37158;DHT22;23050;51.776;22.638;2023-06-10T11:33:17;20.90;99.90
37158;DHT22;23050;51.776;22.638;2023-06-10T11:35:43;20.90;99.90
37158;DHT22;23050;51.776;22.638;2023-06-10T11:38:09;20.90;99.90
37158;DHT22;23050;51.776;22.638;2023-06-10T11:40:34;20.80;99.90
37158;DHT22;23050;51.776;22.638;2023-06-10T11:43:00;20.50;99.90
37158;DHT22;23050;51.776;22.638;2023-06-10T11:45:26;20.30;99.90
37158;DHT22;23050;51.776;22.638;2023-06-10T11:47:55;20.40;99.90
37158;DHT22;23050;51.776;22.638;2023-06-10T11:50:54;20.50;99.90
37158;DHT22;23050;51.776;22.638;2023-06-10T11:53:13;20.80;99.90
37158;DHT22;23050;51.776;22.638;2023-06-10T11:58:05;21.50;99.90
37158;DHT22;23050;51.776;22.638;2023-06-10T12:00:30;21.90;99.90
37158;DHT22;23050;51.776;22.638;2023-06-10T12:02:59;22.20;99.90
37158;DHT22;23050;51.776;22.638;2023-06-10T12:05:24;22.30;99.40
37158;DHT22;23050;51.776;22.638;2023-06-10T12:07:51;22.00;99.90
37158;DHT22;23050;51.776;22.638;2023-06-10T12:10:30;22.10;99.70
37158;DHT22;23050;51.776;22.638;2023-06-10T12:12:56;22.00;98.60
37158;DHT22;23050;51.776;22.638;2023-06-10T12:15:24;21.90;99.00
37158;DHT22;23050;51.776;22.638;2023-06-10T12:17:50;22.00;98.70
37158;DHT22;23050;51.776;22.638;2023-06-10T12:20:29;22.00;96.80
37158;DHT22;23050;51.776;22.638;2023-06-10T12:22:55;22.10;98.00
37158;DHT22;23050;51.776;22.638;2023-06-10T12:25:27;22.10;99.00
37158;DHT22;23050;51.776;22.638;2023-06-10T12:27:53;22.30;98.30
37158;DHT22;23050;51.776;22.638;2023-06-10T12:30:19;22.40;98.30
37158;DHT22;23050;51.776;22.638;2023-06-10T12:32:46;23.10;98.90
37158;DHT22;23050;51.776;22.638;2023-06-10T12:35:12;23.70;94.00
37158;DHT22;23050;51.776;22.638;2023-06-10T12:37:41;24.50;91.40
37158;DHT22;23050;51.776;22.638;2023-06-10T12:40:07;25.50;87.80
37158;DHT22;23050;51.776;22.638;2023-06-10T12:42:35;26.40;72.80
37158;DHT22;23050;51.776;22.638;2023-06-10T12:45:01;26.80;58.50
37158;DHT22;23050;51.776;22.638;2023-06-10T12:47:30;26.50;55.60
37158;DHT22;23050;51.776;22.638;2023-06-10T12:49:58;26.50;59.90
37158;DHT22;23050;51.776;22.638;2023-06-10T12:52:24;26.30;54.10
37158;DHT22;23050;51.776;22.638;2023-06-10T12:54:50;26.40;52.30
37158;DHT22;23050;51.776;22.638;2023-06-10T12:57:15;26.30;49.10
37158;DHT22;23050;51.776;22.638;2023-06-10T12:59:42;26.50;44.70
37158;DHT22;23050;51.776;22.638;2023-06-10T13:02:10;26.60;47.10
37158;DHT22;23050;51.776;22.638;2023-06-10T13:04:40;26.60;41.20
37158;DHT22;23050;51.776;22.638;2023-06-10T13:07:05;26.10;35.50
37158;DHT22;23050;51.776;22.638;2023-06-10T13:09:31;25.60;37.30
37158;DHT22;23050;51.776;22.638;2023-06-10T13:11:57;25.10;40.50
37158;DHT22;23050;51.776;22.638;2023-06-10T13:14:22;24.80;39.60
37158;DHT22;23050;51.776;22.638;2023-06-10T13:16:48;24.80;39.40
37158;DHT22;23050;51.776;22.638;2023-06-10T13:19:13;24.50;40.20
37158;DHT22;23050;51.776;22.638;2023-06-10T13:21:39;23.90;45.30
37158;DHT22;23050;51.776;22.638;2023-06-10T13:24:04;23.80;47.40
37158;DHT22;23050;51.776;22.638;2023-06-10T13:26:30;23.70;47.20
37158;DHT22;23050;51.776;22.638;2023-06-10T13:28:55;23.50;47.40
37158;DHT22;23050;51.776;22.638;2023-06-10T13:31:21;23.40;52.10
37158;DHT22;23050;51.776;22.638;2023-06-10T13:33:46;23.30;54.30
37158;DHT22;23050;51.776;22.638;2023-06-10T13:36:12;23.50;53.20
37158;DHT22;23050;51.776;22.638;2023-06-10T13:38:38;23.70;53.70
37158;DHT22;23050;51.776;22.638;2023-06-10T13:41:03;23.90;49.30
37158;DHT22;23050;51.776;22.638;2023-06-10T13:43:29;24.20;48.50
37158;DHT22;23050;51.776;22.638;2023-06-10T13:45:54;24.30;44.80
37158;DHT22;23050;51.776;22.638;2023-06-10T13:48:20;24.20;48.40
37158;DHT22;23050;51.776;22.638;2023-06-10T13:50:46;24.30;47.30
37158;DHT22;23050;51.776;22.638;2023-06-10T13:53:12;24.00;45.90
37158;DHT22;23050;51.776;22.638;2023-06-10T13:55:37;23.80;49.80
37158;DHT22;23050;51.776;22.638;2023-06-10T13:58:03;23.60;54.40
37158;DHT22;23050;51.776;22.638;2023-06-10T14:00:28;23.60;58.90
37158;DHT22;23050;51.776;22.638;2023-06-10T14:02:54;23.90;57.90
37158;DHT22;23050;51.776;22.638;2023-06-10T14:05:19;24.30;55.40
37158;DHT22;23050;51.776;22.638;2023-06-10T14:07:45;24.70;51.00
37158;DHT22;23050;51.776;22.638;2023-06-10T14:10:10;24.60;51.80
37158;DHT22;23050;51.776;22.638;2023-06-10T14:12:36;24.40;48.20
37158;DHT22;23050;51.776;22.638;2023-06-10T14:15:01;24.20;51.10
37158;DHT22;23050;51.776;22.638;2023-06-10T14:17:28;24.30;50.70
37158;DHT22;23050;51.776;22.638;2023-06-10T14:19:53;24.60;51.20
37158;DHT22;23050;51.776;22.638;2023-06-10T14:22:19;24.70;52.50
37158;DHT22;23050;51.776;22.638;2023-06-10T14:24:44;25.00;46.90
37158;DHT22;23050;51.776;22.638;2023-06-10T14:27:10;25.30;46.30
37158;DHT22;23050;51.776;22.638;2023-06-10T14:29:35;25.80;44.10
37158;DHT22;23050;51.776;22.638;2023-06-10T14:32:01;26.00;39.70
37158;DHT22;23050;51.776;22.638;2023-06-10T14:34:26;25.90;37.10
37158;DHT22;23050;51.776;22.638;2023-06-10T14:36:54;25.60;41.50
37158;DHT22;23050;51.776;22.638;2023-06-10T14:39:20;25.50;40.30
37158;DHT22;23050;51.776;22.638;2023-06-10T14:41:47;25.80;37.40
37158;DHT22;23050;51.776;22.638;2023-06-10T14:44:12;25.90;36.30
37158;DHT22;23050;51.776;22.638;2023-06-10T14:46:38;25.90;40.00
37158;DHT22;23050;51.776;22.638;2023-06-10T14:49:03;25.90;39.30
37158;DHT22;23050;51.776;22.638;2023-06-10T14:51:30;26.00;42.70
37158;DHT22;23050;51.776;22.638;2023-06-10T14:53:55;25.80;35.30
37158;DHT22;23050;51.776;22.638;2023-06-10T14:56:21;25.80;40.40
37158;DHT22;23050;51.776;22.638;2023-06-10T14:58:46;26.00;39.90
37158;DHT22;23050;51.776;22.638;2023-06-10T15:01:12;25.90;36.50
37158;DHT22;23050;51.776;22.638;2023-06-10T15:03:37;26.30;34.20
37158;DHT22;23050;51.776;22.638;2023-06-10T15:06:03;26.40;32.30
37158;DHT22;23050;51.776;22.638;2023-06-10T15:08:28;25.80;30.00
37158;DHT22;23050;51.776;22.638;2023-06-10T15:10:54;25.40;37.70
37158;DHT22;23050;51.776;22.638;2023-06-10T15:13:19;25.00;34.30
37158;DHT22;23050;51.776;22.638;2023-06-10T15:15:45;24.70;33.60
37158;DHT22;23050;51.776;22.638;2023-06-10T15:18:10;24.50;32.10
37158;DHT22;23050;51.776;22.638;2023-06-10T15:20:36;24.40;33.40